Time,TemperatureF,DewpointF,PressureIn,WindDirection,WindDirectionDegrees,WindSpeedMPH,WindSpeedGustMPH,Humidity,HourlyPrecipIn,Conditions,Clouds,dailyrainin,SoftwareType,DateUTC
2013-07-23 00:01:00,82.0,81.4,31.74,West,270,0.0,0.0,98,0.00,CLR,,0.00,WeatherDisplay:10.37,2013-07-23 04:01:00,
2013-07-23 00:02:00,82.0,81.4,31.74,West,270,0.0,0.0,98,0.00,CLR,,0.00,WeatherDisplay:10.37,2013-07-23 04:02:00,
2013-07-23 00:07:00,82.0,81.4,31.74,West,270,0.0,0.0,98,0.00,CLR,,0.00,WeatherDisplay:10.37,2013-07-23 04:07:00,
2013-07-23 00:12:00,82.0,81.4,31.74,West,270,0.0,0.0,98,0.00,CLR,,0.00,WeatherDisplay:10.37,2013-07-23 04:12:00,
2013-07-23 00:17:00,81.9,81.3,31.74,West,270,0.0,0.0,98,0.00,CLR,,0.00,WeatherDisplay:10.37,2013-07-23 04:17:00,
2013-07-23 00:22:00,81.9,81.3,31.74,West,270,0.0,0.0,98,0.00,CLR,,0.00,WeatherDisplay:10.37,2013-07-23 04:22:00,
2013-07-23 00:27:00,81.5,80.9,31.74,West,270,0.0,0.0,98,0.00,CLR,,0.00,WeatherDisplay:10.37,2013-07-23 04:27:00,
2013-07-23 00:32:00,81.5,80.9,31.74,West,270,0.0,0.0,98,0.00,CLR,,0.00,WeatherDisplay:10.37,2013-07-23 04:32:00,
2013-07-23 00:37:00,81.5,80.9,31.74,West,270,0.0,0.0,98,0.00,CLR,,0.00,WeatherDisplay:10.37,2013-07-23 04:37:00,
2013-07-23 00:42:00,81.3,80.7,31.74,West,270,0.0,0.0,98,0.00,CLR,,0.00,WeatherDisplay:10.37,2013-07-23 04:42:00,
2013-07-23 00:47:00,81.3,80.7,31.74,West,270,0.0,0.0,98,0.00,CLR,,0.00,WeatherDisplay:10.37,2013-07-23 04:47:00,
2013-07-23 00:52:00,81.1,80.5,31.74,West,270,0.0,0.0,98,0.00,CLR,,0.00,WeatherDisplay:10.37,2013-07-23 04:52:00,
2013-07-23 00:57:00,81.1,80.5,31.74,West,270,0.0,0.0,98,0.00,CLR,,0.00,WeatherDisplay:10.37,2013-07-23 04:57:00,
2013-07-23 01:02:00,81.1,80.5,31.74,West,270,0.0,0.0,98,0.00,CLR,,0.00,WeatherDisplay:10.37,2013-07-23 05:02:00,
2013-07-23 01:07:00,81.1,80.5,31.74,West,270,0.0,0.0,98,0.00,CLR,,0.00,WeatherDisplay:10.37,2013-07-23 05:07:00,
2013-07-23 01:12:00,81.1,80.5,31.74,West,270,0.0,0.0,98,0.00,CLR,,0.00,WeatherDisplay:10.37,2013-07-23 05:12:00,
2013-07-23 01:17:00,81.0,80.4,31.74,West,270,0.0,0.0,98,0.00,CLR,,0.00,WeatherDisplay:10.37,2013-07-23 05:17:00,
2013-07-23 01:22:00,81.0,80.4,31.74,West,270,0.0,0.0,98,0.00,CLR,,0.00,WeatherDisplay:10.37,2013-07-23 05:22:00,
2013-07-23 01:27:00,81.0,80.4,31.74,West,270,0.0,0.0,98,0.00,CLR,,0.00,WeatherDisplay:10.37,2013-07-23 05:27:00,
2013-07-23 01:32:00,80.8,80.2,31.74,West,270,0.0,0.0,98,0.00,CLR,,0.00,WeatherDisplay:10.37,2013-07-23 05:32:00,
2013-07-23 01:37:00,80.8,80.2,31.74,West,270,0.0,0.0,98,0.00,CLR,,0.00,WeatherDisplay:10.37,2013-07-23 05:37:00,
2013-07-23 01:42:00,80.8,80.2,31.74,West,270,0.0,0.0,98,0.00,CLR,,0.00,WeatherDisplay:10.37,2013-07-23 05:42:00,
2013-07-23 01:47:00,80.8,80.2,31.74,West,270,0.0,0.0,98,0.00,CLR,,0.00,WeatherDisplay:10.37,2013-07-23 05:47:00,
2013-07-23 01:52:00,80.6,80.0,31.74,West,270,0.0,0.0,98,0.00,CLR,,0.00,WeatherDisplay:10.37,2013-07-23 05:52:00,
2013-07-23 01:57:00,80.6,80.0,31.74,West,270,0.0,0.0,98,0.00,CLR,,0.00,WeatherDisplay:10.37,2013-07-23 05:57:00,
2013-07-23 02:02:00,80.4,79.8,31.74,West,270,0.0,0.0,98,0.00,CLR,,0.00,WeatherDisplay:10.37,2013-07-23 06:02:00,
2013-07-23 02:07:00,80.4,79.8,31.74,West,270,0.0,0.0,98,0.00,CLR,,0.00,WeatherDisplay:10.37,2013-07-23 06:07:00,
2013-07-23 02:12:00,80.4,79.8,31.59,West,270,0.0,0.0,98,0.00,CLR,,0.00,WeatherDisplay:10.37,2013-07-23 06:12:00,
2013-07-23 02:17:00,80.4,79.8,31.59,West,270,0.0,0.0,98,0.00,CLR,,0.00,WeatherDisplay:10.37,2013-07-23 06:17:00,
2013-07-23 02:22:00,80.2,79.6,30.45,West,270,0.0,0.0,98,0.00,CLR,,0.00,WeatherDisplay:10.37,2013-07-23 06:22:00,
2013-07-23 02:27:00,80.2,79.6,30.45,West,270,0.0,0.0,98,0.00,CLR,,0.00,WeatherDisplay:10.37,2013-07-23 06:27:00,
2013-07-23 02:32:00,80.2,79.6,30.45,West,270,0.0,0.0,98,0.00,CLR,,0.00,WeatherDisplay:10.37,2013-07-23 06:32:00,
2013-07-23 02:37:00,80.2,79.6,29.64,West,270,0.0,0.0,98,0.00,CLR,,0.00,WeatherDisplay:10.37,2013-07-23 06:37:00,
2013-07-23 02:42:00,80.2,79.6,29.64,West,270,0.0,0.0,98,0.00,CLR,,0.00,WeatherDisplay:10.37,2013-07-23 06:42:00,
2013-07-23 02:47:00,80.4,79.8,29.28,West,270,0.0,0.0,98,0.00,CLR,,0.00,WeatherDisplay:10.37,2013-07-23 06:47:00,
2013-07-23 02:52:00,80.4,79.8,29.28,West,270,0.0,0.0,98,0.00,CLR,,0.00,WeatherDisplay:10.37,2013-07-23 06:52:00,
2013-07-23 02:57:00,80.4,79.8,30.07,West,270,0.0,0.0,98,0.00,CLR,,0.00,WeatherDisplay:10.37,2013-07-23 06:57:00,
2013-07-23 03:02:00,80.4,79.8,30.07,West,270,0.0,0.0,98,0.00,CLR,,0.00,WeatherDisplay:10.37,2013-07-23 07:02:00,
2013-07-23 03:07:00,80.4,79.8,30.07,West,270,0.0,0.0,98,0.00,CLR,,0.00,WeatherDisplay:10.37,2013-07-23 07:07:00,
2013-07-23 03:12:00,80.4,79.8,31.91,West,270,0.0,0.0,98,0.00,CLR,,0.00,WeatherDisplay:10.37,2013-07-23 07:12:00,
2013-07-23 03:17:00,80.2,79.6,31.91,West,270,0.0,0.0,98,0.00,CLR,,0.00,WeatherDisplay:10.37,2013-07-23 07:17:00,
2013-07-23 03:22:00,80.1,79.5,30.07,West,270,0.0,0.0,98,0.00,CLR,,0.00,WeatherDisplay:10.37,2013-07-23 07:22:00,
2013-07-23 03:27:00,80.1,79.5,30.07,West,270,0.0,0.0,98,0.00,CLR,,0.00,WeatherDisplay:10.37,2013-07-23 07:27:00,
2013-07-23 03:32:00,80.1,79.5,30.07,West,270,0.0,0.0,98,0.00,CLR,,0.00,WeatherDisplay:10.37,2013-07-23 07:32:00,
2013-07-23 03:37:00,80.1,79.5,30.07,West,270,0.0,0.0,98,0.00,CLR,,0.00,WeatherDisplay:10.37,2013-07-23 07:37:00,
2013-07-23 03:42:00,80.1,79.5,30.07,West,270,0.0,0.0,98,0.00,CLR,,0.00,WeatherDisplay:10.37,2013-07-23 07:42:00,
2013-07-23 03:47:00,80.2,79.6,30.07,West,270,0.0,0.0,98,0.00,CLR,,0.00,WeatherDisplay:10.37,2013-07-23 07:47:00,
2013-07-23 03:52:00,80.4,79.8,30.07,West,270,0.0,0.0,98,0.00,CLR,,0.00,WeatherDisplay:10.37,2013-07-23 07:52:00,
2013-07-23 03:57:00,80.4,79.8,30.07,West,270,0.0,0.0,98,0.00,CLR,,0.00,WeatherDisplay:10.37,2013-07-23 07:57:00,
2013-07-23 04:02:00,80.4,79.8,30.07,West,270,0.0,0.0,98,0.00,CLR,,0.00,WeatherDisplay:10.37,2013-07-23 08:02:00,
2013-07-23 04:07:00,80.2,79.6,30.07,West,270,0.0,0.0,98,0.00,CLR,,0.00,WeatherDisplay:10.37,2013-07-23 08:07:00,
2013-07-23 04:12:00,80.2,79.6,30.07,West,270,0.0,0.0,98,0.00,CLR,,0.00,WeatherDisplay:10.37,2013-07-23 08:12:00,
2013-07-23 04:17:00,80.2,79.6,30.07,West,270,0.0,0.0,98,0.00,CLR,,0.00,WeatherDisplay:10.37,2013-07-23 08:17:00,
2013-07-23 04:22:00,80.2,79.6,30.07,West,270,0.0,0.0,98,0.00,CLR,,0.00,WeatherDisplay:10.37,2013-07-23 08:22:00,
2013-07-23 04:27:00,80.2,79.6,30.07,West,270,0.0,0.0,98,0.00,CLR,,0.00,WeatherDisplay:10.37,2013-07-23 08:27:00,
2013-07-23 04:32:00,80.2,79.6,30.07,West,270,0.0,0.0,98,0.00,CLR,,0.00,WeatherDisplay:10.37,2013-07-23 08:32:00,
2013-07-23 04:37:00,80.2,79.6,30.07,West,270,0.0,0.0,98,0.00,CLR,,0.00,WeatherDisplay:10.37,2013-07-23 08:37:00,
2013-07-23 04:42:00,80.1,79.5,30.07,West,270,0.0,0.0,98,0.00,CLR,,0.00,WeatherDisplay:10.37,2013-07-23 08:42:00,
2013-07-23 04:47:00,80.1,79.5,30.07,West,270,0.0,0.0,98,0.00,CLR,,0.00,WeatherDisplay:10.37,2013-07-23 08:47:00,
2013-07-23 04:52:00,80.1,79.5,30.07,West,270,0.0,0.0,98,0.00,CLR,,0.00,WeatherDisplay:10.37,2013-07-23 08:52:00,
2013-07-23 04:57:00,80.1,79.5,30.07,West,270,0.0,0.0,98,0.00,CLR,,0.00,WeatherDisplay:10.37,2013-07-23 08:57:00,
2013-07-23 05:02:00,80.1,79.5,31.76,West,270,0.0,0.0,98,0.00,CLR,,0.00,WeatherDisplay:10.37,2013-07-23 09:02:00,
2013-07-23 05:07:00,80.1,79.5,31.76,West,270,0.0,0.0,98,0.00,CLR,,0.00,WeatherDisplay:10.37,2013-07-23 09:07:00,
2013-07-23 05:12:00,80.1,79.5,30.62,West,270,0.0,0.0,98,0.00,CLR,,0.00,WeatherDisplay:10.37,2013-07-23 09:12:00,
2013-07-23 05:17:00,80.1,79.5,30.62,West,270,0.0,0.0,98,0.00,CLR,,0.00,WeatherDisplay:10.37,2013-07-23 09:17:00,
2013-07-23 05:22:00,79.9,79.3,29.80,West,270,0.0,0.0,98,0.00,CLR,,0.00,WeatherDisplay:10.37,2013-07-23 09:22:00,
2013-07-23 05:27:00,79.9,79.3,29.80,West,270,0.0,0.0,98,0.00,CLR,,0.00,WeatherDisplay:10.37,2013-07-23 09:27:00,
2013-07-23 05:32:00,79.9,79.3,29.80,West,270,0.0,0.0,98,0.00,CLR,,0.00,WeatherDisplay:10.37,2013-07-23 09:32:00,
2013-07-23 05:37:00,79.9,79.3,29.31,West,270,0.0,0.0,98,0.00,CLR,,0.00,WeatherDisplay:10.37,2013-07-23 09:37:00,
2013-07-23 05:42:00,79.9,79.3,29.31,West,270,0.0,0.0,98,0.00,CLR,,0.00,WeatherDisplay:10.37,2013-07-23 09:42:00,
2013-07-23 05:47:00,79.9,79.3,28.93,West,270,0.0,0.0,98,0.00,CLR,,0.00,WeatherDisplay:10.37,2013-07-23 09:47:00,
2013-07-23 05:52:00,79.9,79.3,28.93,West,270,0.0,0.0,98,0.00,CLR,,0.00,WeatherDisplay:10.37,2013-07-23 09:52:00,
2013-07-23 05:57:00,79.7,79.1,28.93,West,270,0.0,0.0,98,0.00,CLR,,0.00,WeatherDisplay:10.37,2013-07-23 09:57:00,
2013-07-23 06:02:00,79.7,79.1,30.81,West,270,0.0,0.0,98,0.00,CLR,,0.00,WeatherDisplay:10.37,2013-07-23 10:02:00,
2013-07-23 06:07:00,79.7,79.1,30.81,West,270,0.0,0.0,98,0.00,CLR,,0.00,WeatherDisplay:10.37,2013-07-23 10:07:00,
2013-07-23 06:12:00,79.7,79.1,32.43,West,270,0.0,0.0,98,0.00,CLR,,0.00,WeatherDisplay:10.37,2013-07-23 10:12:00,
2013-07-23 06:17:00,79.7,79.1,32.43,West,270,0.0,0.0,98,0.00,CLR,,0.00,WeatherDisplay:10.37,2013-07-23 10:17:00,
2013-07-23 06:22:00,79.7,79.1,30.81,West,270,0.0,0.0,98,0.00,CLR,,0.00,WeatherDisplay:10.37,2013-07-23 10:22:00,
2013-07-23 06:27:00,79.7,79.1,30.81,West,270,0.0,0.0,98,0.00,CLR,,0.00,WeatherDisplay:10.37,2013-07-23 10:27:00,
2013-07-23 06:32:00,79.7,79.1,30.81,West,270,0.0,0.0,98,0.00,CLR,,0.00,WeatherDisplay:10.37,2013-07-23 10:32:00,
2013-07-23 06:37:00,79.7,79.1,30.81,West,270,0.0,0.0,98,0.00,CLR,,0.00,WeatherDisplay:10.37,2013-07-23 10:37:00,
2013-07-23 06:42:00,79.7,79.1,30.81,West,270,0.0,0.0,98,0.00,CLR,,0.00,WeatherDisplay:10.37,2013-07-23 10:42:00,
2013-07-23 06:47:00,79.7,79.1,30.81,West,270,0.0,0.0,98,0.00,CLR,,0.00,WeatherDisplay:10.37,2013-07-23 10:47:00,
2013-07-23 06:52:00,79.7,79.1,30.81,West,270,0.0,0.0,98,0.00,CLR,,0.00,WeatherDisplay:10.37,2013-07-23 10:52:00,
2013-07-23 06:57:00,79.9,79.3,30.81,West,270,0.0,0.0,98,0.00,CLR,,0.00,WeatherDisplay:10.37,2013-07-23 10:57:00,
2013-07-23 07:02:00,79.9,79.3,30.81,West,270,0.0,0.0,98,0.00,CLR,,0.00,WeatherDisplay:10.37,2013-07-23 11:02:00,
2013-07-23 07:07:00,80.2,79.6,30.81,West,270,0.0,0.0,98,0.00,CLR,,0.00,WeatherDisplay:10.37,2013-07-23 11:07:00,
2013-07-23 07:12:00,80.2,79.6,30.81,West,270,0.0,0.0,98,0.00,CLR,,0.00,WeatherDisplay:10.37,2013-07-23 11:12:00,
2013-07-23 07:17:00,80.6,80.0,30.81,West,270,1.1,1.1,98,0.00,CLR,,0.00,WeatherDisplay:10.37,2013-07-23 11:17:00,
2013-07-23 07:22:00,80.8,80.2,30.81,West,270,0.0,0.0,98,0.00,CLR,,0.00,WeatherDisplay:10.37,2013-07-23 11:22:00,
2013-07-23 07:27:00,80.8,80.2,30.81,West,270,0.0,0.0,98,0.00,CLR,,0.00,WeatherDisplay:10.37,2013-07-23 11:27:00,
2013-07-23 07:32:00,80.8,80.2,30.81,West,270,0.0,0.0,98,0.00,CLR,,0.00,WeatherDisplay:10.37,2013-07-23 11:32:00,
2013-07-23 07:37:00,81.0,80.4,30.81,West,270,0.0,0.0,98,0.00,CLR,,0.00,WeatherDisplay:10.37,2013-07-23 11:37:00,
2013-07-23 07:42:00,81.0,80.4,30.81,West,270,0.0,0.0,98,0.00,CLR,,0.00,WeatherDisplay:10.37,2013-07-23 11:42:00,
2013-07-23 07:47:00,81.1,80.5,31.50,West,270,0.0,0.0,98,0.00,CLR,,0.00,WeatherDisplay:10.37,2013-07-23 11:47:00,
2013-07-23 07:52:00,81.3,80.7,31.50,West,270,0.0,0.0,98,0.00,CLR,,0.00,WeatherDisplay:10.37,2013-07-23 11:52:00,
2013-07-23 07:57:00,81.3,80.7,31.50,West,270,0.0,0.0,98,0.00,CLR,,0.00,WeatherDisplay:10.37,2013-07-23 11:57:00,
2013-07-23 08:02:00,81.7,81.1,29.79,West,270,0.0,0.0,98,0.00,CLR,,0.00,WeatherDisplay:10.37,2013-07-23 12:02:00,
2013-07-23 08:07:00,81.7,81.1,29.79,West,270,0.0,0.0,98,0.00,CLR,,0.00,WeatherDisplay:10.37,2013-07-23 12:07:00,
2013-07-23 08:12:00,81.9,81.3,28.77,West,270,0.0,0.0,98,0.00,CLR,,0.00,WeatherDisplay:10.37,2013-07-23 12:12:00,
2013-07-23 08:17:00,82.0,81.4,28.77,West,270,0.0,0.0,98,0.00,CLR,,0.00,WeatherDisplay:10.37,2013-07-23 12:17:00,
2013-07-23 08:22:00,82.2,81.6,28.13,West,270,0.0,0.0,98,0.00,CLR,,0.00,WeatherDisplay:10.37,2013-07-23 12:22:00,
2013-07-23 08:27:00,82.6,82.0,28.13,West,270,0.0,0.0,98,0.00,CLR,,0.00,WeatherDisplay:10.37,2013-07-23 12:27:00,
2013-07-23 08:32:00,82.8,82.2,28.13,West,270,0.0,0.0,98,0.00,CLR,,0.00,WeatherDisplay:10.37,2013-07-23 12:32:00,
2013-07-23 08:37:00,82.9,82.3,27.74,West,270,0.0,0.0,98,0.00,CLR,,0.00,WeatherDisplay:10.37,2013-07-23 12:37:00,
2013-07-23 08:42:00,83.1,82.5,27.74,West,270,0.0,0.0,98,0.00,CLR,,0.00,WeatherDisplay:10.37,2013-07-23 12:42:00,
2013-07-23 08:47:00,83.3,82.7,27.40,West,270,0.0,0.0,98,0.00,CLR,,0.00,WeatherDisplay:10.37,2013-07-23 12:47:00,
2013-07-23 08:52:00,83.5,82.9,27.40,West,270,0.0,0.0,98,0.00,CLR,,0.00,WeatherDisplay:10.37,2013-07-23 12:52:00,
2013-07-23 08:57:00,83.8,83.2,27.40,West,270,0.0,0.0,98,0.00,CLR,,0.00,WeatherDisplay:10.37,2013-07-23 12:57:00,
2013-07-23 09:02:00,83.8,83.2,27.21,West,270,0.0,0.0,98,0.00,CLR,,0.00,WeatherDisplay:10.37,2013-07-23 13:02:00,
2013-07-23 09:07:00,84.0,83.4,27.21,West,270,0.0,0.0,98,0.00,CLR,,0.00,WeatherDisplay:10.37,2013-07-23 13:07:00,
2013-07-23 09:12:00,84.2,83.6,26.98,West,270,0.0,0.0,98,0.00,CLR,,0.00,WeatherDisplay:10.37,2013-07-23 13:12:00,
2013-07-23 09:17:00,84.4,83.8,26.98,West,270,0.0,0.0,98,0.00,CLR,,0.00,WeatherDisplay:10.37,2013-07-23 13:17:00,
2013-07-23 09:22:00,84.6,84.0,26.75,West,270,0.0,0.0,98,0.00,CLR,,0.00,WeatherDisplay:10.37,2013-07-23 13:22:00,
2013-07-23 09:27:00,84.9,84.3,26.75,West,270,0.0,0.0,98,0.00,CLR,,0.00,WeatherDisplay:10.37,2013-07-23 13:27:00,
2013-07-23 09:32:00,85.1,84.5,26.75,West,270,0.0,0.0,98,0.00,CLR,,0.00,WeatherDisplay:10.37,2013-07-23 13:32:00,
2013-07-23 09:37:00,85.1,84.5,26.51,West,270,0.0,0.0,98,0.00,CLR,,0.00,WeatherDisplay:10.37,2013-07-23 13:37:00,
2013-07-23 09:42:00,85.1,84.5,26.51,West,270,0.0,0.0,98,0.00,CLR,,0.00,WeatherDisplay:10.37,2013-07-23 13:42:00,
2013-07-23 09:47:00,85.6,85.0,26.81,West,270,1.1,0.0,98,0.00,CLR,,0.00,WeatherDisplay:10.37,2013-07-23 13:47:00,
2013-07-23 09:52:00,85.8,85.2,26.81,West,270,0.0,0.0,98,0.00,CLR,,0.00,WeatherDisplay:10.37,2013-07-23 13:52:00,
2013-07-23 09:57:00,85.8,85.2,26.81,West,270,0.0,0.0,98,0.00,CLR,,0.00,WeatherDisplay:10.37,2013-07-23 13:57:00,
2013-07-23 10:02:00,86.0,85.4,28.86,West,270,0.0,0.0,98,0.00,CLR,,0.00,WeatherDisplay:10.37,2013-07-23 14:02:00,
2013-07-23 10:07:00,86.4,85.8,28.86,West,270,1.1,1.1,98,0.00,CLR,,0.00,WeatherDisplay:10.37,2013-07-23 14:07:00,
2013-07-23 10:12:00,86.4,85.8,30.30,West,270,0.0,0.0,98,0.00,CLR,,0.00,WeatherDisplay:10.37,2013-07-23 14:12:00,
2013-07-23 10:17:00,86.5,85.9,30.30,West,270,0.0,0.0,98,0.00,CLR,,0.00,WeatherDisplay:10.37,2013-07-23 14:17:00,
2013-07-23 10:22:00,86.7,86.1,31.17,West,270,0.0,0.0,98,0.00,CLR,,0.00,WeatherDisplay:10.37,2013-07-23 14:22:00,
2013-07-23 10:27:00,86.9,86.3,31.17,West,270,0.0,0.0,98,0.00,CLR,,0.00,WeatherDisplay:10.37,2013-07-23 14:27:00,
2013-07-23 10:32:00,86.9,86.3,31.17,West,270,0.0,0.0,98,0.00,CLR,,0.00,WeatherDisplay:10.37,2013-07-23 14:32:00,
2013-07-23 10:37:00,87.1,86.5,31.80,West,270,0.0,0.0,98,0.00,CLR,,0.00,WeatherDisplay:10.37,2013-07-23 14:37:00,
2013-07-23 10:42:00,87.1,86.5,31.80,West,270,0.0,0.0,98,0.00,CLR,,0.00,WeatherDisplay:10.37,2013-07-23 14:42:00,
2013-07-23 10:47:00,87.3,86.7,32.13,West,270,0.0,0.0,98,0.00,CLR,,0.00,WeatherDisplay:10.37,2013-07-23 14:47:00,
2013-07-23 10:52:00,87.4,86.8,32.13,West,270,0.0,0.0,98,0.00,CLR,,0.00,WeatherDisplay:10.37,2013-07-23 14:52:00,
2013-07-23 10:57:00,87.8,87.2,32.13,West,270,0.0,0.0,98,0.00,CLR,,0.00,WeatherDisplay:10.37,2013-07-23 14:57:00,
2013-07-23 11:02:00,88.0,87.4,32.47,West,270,0.0,0.0,98,0.00,CLR,,0.00,WeatherDisplay:10.37,2013-07-23 15:02:00,
2013-07-23 11:07:00,88.5,87.9,32.47,West,270,0.0,0.0,98,0.00,CLR,,0.00,WeatherDisplay:10.37,2013-07-23 15:07:00,
2013-07-23 11:12:00,88.7,88.1,31.80,West,270,0.0,0.0,98,0.00,CLR,,0.00,WeatherDisplay:10.37,2013-07-23 15:12:00,
2013-07-23 11:17:00,89.2,88.6,31.80,West,270,0.0,0.0,98,0.00,CLR,,0.00,WeatherDisplay:10.37,2013-07-23 15:17:00,
2013-07-23 11:22:00,89.8,89.2,32.06,West,270,1.1,0.0,98,0.00,CLR,,0.00,WeatherDisplay:10.37,2013-07-23 15:22:00,
2013-07-23 11:27:00,90.0,89.4,32.06,West,270,0.0,0.0,98,0.00,CLR,,0.00,WeatherDisplay:10.37,2013-07-23 15:27:00,
2013-07-23 11:32:00,90.7,90.1,32.06,West,270,1.1,1.1,98,0.00,CLR,,0.00,WeatherDisplay:10.37,2013-07-23 15:32:00,
2013-07-23 11:37:00,89.8,89.2,29.60,West,270,0.0,0.0,98,0.00,CLR,,0.00,WeatherDisplay:10.37,2013-07-23 15:37:00,
2013-07-23 11:43:00,89.1,88.5,29.60,West,270,0.0,0.0,98,0.00,CLR,,0.00,WeatherDisplay:10.37,2013-07-23 15:43:00,
2013-07-23 11:48:00,89.6,89.0,28.20,West,270,0.0,0.0,98,0.00,CLR,,0.00,WeatherDisplay:10.37,2013-07-23 15:48:00,
2013-07-23 11:53:00,90.5,89.9,28.20,West,270,0.0,0.0,98,0.00,CLR,,0.00,WeatherDisplay:10.37,2013-07-23 15:53:00,
2013-07-23 11:58:00,91.4,90.8,27.33,West,270,0.0,0.0,98,0.00,CLR,,0.00,WeatherDisplay:10.37,2013-07-23 15:58:00,
2013-07-23 12:03:00,91.2,90.6,27.33,West,270,0.0,0.0,98,0.00,CLR,,0.00,WeatherDisplay:10.37,2013-07-23 16:03:00,
2013-07-23 12:08:00,91.9,91.3,27.33,West,270,0.0,0.0,98,0.00,CLR,,0.00,WeatherDisplay:10.37,2013-07-23 16:08:00,
2013-07-23 12:13:00,93.2,92.2,27.91,West,270,0.0,0.0,97,0.00,CLR,,0.00,WeatherDisplay:10.37,2013-07-23 16:13:00,
2013-07-23 12:18:00,94.1,89.3,27.91,West,270,0.0,0.0,86,0.00,CLR,,0.00,WeatherDisplay:10.37,2013-07-23 16:18:00,
2013-07-23 12:23:00,95.4,87.0,29.45,West,270,1.1,0.0,77,0.00,CLR,,0.00,WeatherDisplay:10.37,2013-07-23 16:23:00,
2013-07-23 12:28:00,96.1,87.3,29.45,West,270,0.0,0.0,76,0.00,CLR,,0.00,WeatherDisplay:10.37,2013-07-23 16:28:00,
2013-07-23 12:33:00,97.2,87.9,29.45,West,270,0.0,0.0,75,0.00,CLR,,0.00,WeatherDisplay:10.37,2013-07-23 16:33:00,
2013-07-23 12:38:00,96.6,84.3,30.23,West,270,0.0,0.0,68,0.00,CLR,,0.00,WeatherDisplay:10.37,2013-07-23 16:38:00,
2013-07-23 12:43:00,95.9,85.8,30.23,West,270,0.0,0.0,73,0.00,CLR,,0.00,WeatherDisplay:10.37,2013-07-23 16:43:00,
2013-07-23 12:48:00,97.3,86.8,30.71,West,270,0.0,0.0,72,0.00,CLR,,0.00,WeatherDisplay:10.37,2013-07-23 16:48:00,
2013-07-23 12:53:00,96.8,84.9,30.71,West,270,0.0,0.0,69,0.00,CLR,,0.00,WeatherDisplay:10.37,2013-07-23 16:53:00,
2013-07-23 12:58:00,97.2,84.4,31.03,West,270,0.0,0.0,67,0.00,CLR,,0.00,WeatherDisplay:10.37,2013-07-23 16:58:00,
2013-07-23 13:03:00,99.0,85.6,31.03,West,270,0.0,0.0,66,0.00,CLR,,0.00,WeatherDisplay:10.37,2013-07-23 17:03:00,
2013-07-23 13:08:00,97.9,84.6,31.03,West,270,0.0,0.0,66,0.00,CLR,,0.00,WeatherDisplay:10.37,2013-07-23 17:08:00,
2013-07-23 13:13:00,98.1,83.8,31.18,West,270,0.0,0.0,64,0.00,CLR,,0.00,WeatherDisplay:10.37,2013-07-23 17:13:00,
2013-07-23 13:18:00,98.4,83.1,31.18,West,270,1.1,1.1,62,0.00,CLR,,0.00,WeatherDisplay:10.37,2013-07-23 17:18:00,
2013-07-23 13:23:00,99.9,83.0,31.28,West,270,0.0,0.0,59,0.00,CLR,,0.00,WeatherDisplay:10.37,2013-07-23 17:23:00,
2013-07-23 13:28:00,99.7,82.3,31.28,West,270,0.0,0.0,58,0.00,CLR,,0.00,WeatherDisplay:10.37,2013-07-23 17:28:00,
2013-07-23 13:33:00,100.4,82.4,31.28,West,270,0.0,0.0,57,0.00,CLR,,0.00,WeatherDisplay:10.37,2013-07-23 17:33:00,
2013-07-23 13:38:00,101.1,81.4,31.19,West,270,0.0,0.0,54,0.00,CLR,,0.00,WeatherDisplay:10.37,2013-07-23 17:38:00,
2013-07-23 13:43:00,100.9,80.0,31.19,West,270,0.0,0.0,52,0.00,CLR,,0.00,WeatherDisplay:10.37,2013-07-23 17:43:00,
2013-07-23 13:48:00,101.8,89.7,31.09,West,270,0.0,0.0,69,0.00,CLR,,0.00,WeatherDisplay:10.37,2013-07-23 17:48:00,
2013-07-23 13:53:00,102.0,90.8,31.09,West,270,1.1,1.1,71,0.00,CLR,,0.00,WeatherDisplay:10.37,2013-07-23 17:53:00,
2013-07-23 13:58:00,100.6,90.8,31.00,West,270,5.8,5.8,74,0.00,CLR,,0.00,WeatherDisplay:10.37,2013-07-23 17:58:00,
2013-07-23 14:04:00,100.6,89.5,31.00,West,270,1.1,1.1,71,0.00,CLR,,0.00,WeatherDisplay:10.37,2013-07-23 18:04:00,
2013-07-23 14:09:00,100.8,91.0,31.00,West,270,1.7,1.7,74,0.00,CLR,,0.00,WeatherDisplay:10.37,2013-07-23 18:09:00,
2013-07-23 14:14:00,100.9,90.6,30.86,West,270,4.6,4.6,73,0.00,CLR,,0.00,WeatherDisplay:10.37,2013-07-23 18:14:00,
2013-07-23 14:19:00,99.3,93.6,30.86,West,270,4.6,4.6,84,0.00,CLR,,0.00,WeatherDisplay:10.37,2013-07-23 18:19:00,
2013-07-23 14:24:00,98.6,94.1,30.94,West,270,4.6,4.6,87,0.00,CLR,,0.00,WeatherDisplay:10.37,2013-07-23 18:24:00,
2013-07-23 14:29:00,99.7,94.4,30.94,West,270,3.5,3.5,85,0.00,CLR,,0.00,WeatherDisplay:10.37,2013-07-23 18:29:00,
2013-07-23 14:34:00,99.0,92.5,30.86,West,270,5.8,5.8,82,0.00,CLR,,0.00,WeatherDisplay:10.37,2013-07-23 18:34:00,
2013-07-23 14:39:00,98.2,93.3,30.86,West,270,5.8,5.8,86,0.00,CLR,,0.00,WeatherDisplay:10.37,2013-07-23 18:39:00,
2013-07-23 14:45:00,96.4,95.7,30.86,West,270,5.8,5.8,98,0.00,CLR,,0.00,WeatherDisplay:10.37,2013-07-23 18:45:00,
2013-07-23 14:51:00,96.8,95.5,31.10,West,270,5.8,5.8,96,0.00,CLR,,0.00,WeatherDisplay:10.37,2013-07-23 18:51:00,
2013-07-23 14:56:00,96.6,95.3,31.10,West,270,1.1,1.1,96,0.00,CLR,,0.00,WeatherDisplay:10.37,2013-07-23 18:56:00,
2013-07-23 15:01:00,97.3,93.1,31.00,West,270,1.1,1.1,88,0.00,CLR,,0.00,WeatherDisplay:10.37,2013-07-23 19:01:00,
2013-07-23 15:06:00,97.5,93.0,31.00,West,270,5.8,5.8,87,0.00,CLR,,0.00,WeatherDisplay:10.37,2013-07-23 19:06:00,
2013-07-23 15:12:00,96.8,93.7,30.90,West,270,1.1,1.1,91,0.00,CLR,,0.00,WeatherDisplay:10.37,2013-07-23 19:12:00,
2013-07-23 15:17:00,97.2,93.0,30.90,SW,225,7.3,7.3,88,0.00,CLR,,0.00,WeatherDisplay:10.37,2013-07-23 19:17:00,
2013-07-23 15:23:00,97.2,93.0,30.93,West,270,5.8,5.8,88,0.00,CLR,,0.00,WeatherDisplay:10.37,2013-07-23 19:23:00,
2013-07-23 15:28:00,97.2,91.9,30.93,West,270,5.8,5.8,85,0.00,CLR,,0.00,WeatherDisplay:10.37,2013-07-23 19:28:00,
2013-07-23 15:33:00,97.3,91.6,30.79,West,270,2.3,2.3,84,0.00,CLR,,0.00,WeatherDisplay:10.37,2013-07-23 19:33:00,
2013-07-23 15:38:00,97.7,92.0,30.79,West,270,2.3,2.3,84,0.00,CLR,,0.00,WeatherDisplay:10.37,2013-07-23 19:38:00,
2013-07-23 15:43:00,97.0,91.7,30.79,West,270,5.8,5.8,85,0.00,CLR,,0.00,WeatherDisplay:10.37,2013-07-23 19:43:00,
2013-07-23 15:48:00,96.8,91.9,30.69,WSW,248,6.9,6.9,86,0.00,CLR,,0.00,WeatherDisplay:10.37,2013-07-23 19:48:00,
2013-07-23 15:53:00,96.3,93.2,30.69,West,270,1.1,1.1,91,0.00,CLR,,0.00,WeatherDisplay:10.37,2013-07-23 19:53:00,
2013-07-23 15:58:00,96.4,92.3,30.74,West,270,1.1,1.1,88,0.00,CLR,,0.00,WeatherDisplay:10.37,2013-07-23 19:58:00,
2013-07-23 16:03:00,96.3,91.8,30.74,WSW,248,1.1,1.8,87,0.00,CLR,,0.00,WeatherDisplay:10.37,2013-07-23 20:03:00,
2013-07-23 16:08:00,95.9,91.0,30.74,West,270,1.1,1.2,86,0.00,CLR,,0.00,WeatherDisplay:10.37,2013-07-23 20:08:00,
2013-07-23 16:13:00,96.4,90.8,30.75,West,270,0.0,0.7,84,0.00,CLR,,0.00,WeatherDisplay:10.37,2013-07-23 20:13:00,
2013-07-23 16:19:00,95.9,90.3,30.75,West,270,5.8,5.8,84,0.00,CLR,,0.00,WeatherDisplay:10.37,2013-07-23 20:19:00,
2013-07-23 16:24:00,96.4,90.0,30.71,West,270,1.1,1.1,82,0.00,CLR,,0.00,WeatherDisplay:10.37,2013-07-23 20:24:00,
2013-07-23 16:29:00,96.3,89.9,30.71,West,270,6.3,6.3,82,0.00,CLR,,0.00,WeatherDisplay:10.37,2013-07-23 20:29:00,
2013-07-23 16:34:00,96.1,90.1,30.59,West,270,1.1,1.2,83,0.00,CLR,,0.00,WeatherDisplay:10.37,2013-07-23 20:34:00,
2013-07-23 16:39:00,95.9,90.3,30.59,West,270,6.9,6.9,84,0.00,CLR,,0.00,WeatherDisplay:10.37,2013-07-23 20:39:00,
2013-07-23 16:45:00,96.3,90.7,30.59,West,270,4.6,4.6,84,0.00,CLR,,0.00,WeatherDisplay:10.37,2013-07-23 20:45:00,
2013-07-23 16:50:00,96.4,89.2,30.53,West,270,3.5,3.5,80,0.00,CLR,,0.00,WeatherDisplay:10.37,2013-07-23 20:50:00,
2013-07-23 16:55:00,96.8,89.2,30.53,West,270,5.8,5.8,79,0.00,CLR,,0.00,WeatherDisplay:10.37,2013-07-23 20:55:00,
2013-07-23 17:00:00,97.0,88.6,30.61,West,270,4.6,4.6,77,0.00,CLR,,0.00,WeatherDisplay:10.37,2013-07-23 21:00:00,
2013-07-23 17:05:00,97.0,89.0,30.61,West,270,5.8,5.8,78,0.00,CLR,,0.00,WeatherDisplay:10.37,2013-07-23 21:05:00,
2013-07-23 17:10:00,96.6,89.4,30.46,West,270,2.3,2.3,80,0.00,CLR,,0.00,WeatherDisplay:10.37,2013-07-23 21:10:00,
2013-07-23 17:15:00,95.7,89.3,30.46,West,270,4.7,4.7,82,0.00,CLR,,0.00,WeatherDisplay:10.37,2013-07-23 21:15:00,
2013-07-23 17:21:00,94.6,90.1,30.67,WSW,248,6.9,6.9,87,0.00,CLR,,0.00,WeatherDisplay:10.37,2013-07-23 21:21:00,
2013-07-23 17:26:00,92.8,90.8,30.67,West,270,3.7,3.7,94,0.00,CLR,,0.00,WeatherDisplay:10.37,2013-07-23 21:26:00,
2013-07-23 17:31:00,92.3,91.7,30.67,West,270,2.3,2.3,98,0.00,CLR,,0.00,WeatherDisplay:10.37,2013-07-23 21:31:00,
2013-07-23 17:36:00,92.5,91.9,31.02,West,270,1.7,1.7,98,0.00,CLR,,0.00,WeatherDisplay:10.37,2013-07-23 21:36:00,
2013-07-23 17:41:00,92.1,91.5,31.02,West,270,5.3,5.3,98,0.00,CLR,,0.00,WeatherDisplay:10.37,2013-07-23 21:41:00,
2013-07-23 17:46:00,92.1,91.5,31.15,West,270,1.1,1.1,98,0.00,CLR,,0.00,WeatherDisplay:10.37,2013-07-23 21:46:00,
2013-07-23 17:52:00,92.3,91.7,31.15,West,270,2.3,2.3,98,0.00,CLR,,0.00,WeatherDisplay:10.37,2013-07-23 21:52:00,
2013-07-23 17:57:00,92.8,92.2,31.15,West,270,2.2,2.2,98,0.00,CLR,,0.00,WeatherDisplay:10.37,2013-07-23 21:57:00,
2013-07-23 18:02:00,93.0,92.4,31.24,West,270,1.1,1.1,98,0.00,CLR,,0.00,WeatherDisplay:10.37,2013-07-23 22:02:00,
2013-07-23 18:08:00,92.5,91.9,31.24,West,270,0.0,0.3,98,0.00,CLR,,0.00,WeatherDisplay:10.37,2013-07-23 22:08:00,
2013-07-23 18:13:00,92.3,91.7,31.31,West,270,5.8,5.8,98,0.00,CLR,,0.00,WeatherDisplay:10.37,2013-07-23 22:13:00,
2013-07-23 18:18:00,92.1,91.5,31.31,West,270,5.8,5.8,98,0.00,CLR,,0.00,WeatherDisplay:10.37,2013-07-23 22:18:00,
2013-07-23 18:24:00,91.9,91.3,31.46,West,270,3.2,3.2,98,0.00,CLR,,0.00,WeatherDisplay:10.37,2013-07-23 22:24:00,
2013-07-23 18:29:00,91.6,91.0,31.46,West,270,1.1,1.1,98,0.00,CLR,,0.00,WeatherDisplay:10.37,2013-07-23 22:29:00,
2013-07-23 18:34:00,91.8,91.2,31.57,West,270,1.1,1.1,98,0.00,CLR,,0.00,WeatherDisplay:10.37,2013-07-23 22:34:00,
2013-07-23 18:40:00,91.0,90.4,31.57,West,270,5.8,5.8,98,0.00,CLR,,0.00,WeatherDisplay:10.37,2013-07-23 22:40:00,
2013-07-23 18:45:00,90.5,89.9,31.62,WSW,248,6.8,6.8,98,0.00,CLR,,0.00,WeatherDisplay:10.37,2013-07-23 22:45:00,
2013-07-23 18:50:00,90.1,89.5,31.62,West,270,4.6,4.6,98,0.00,CLR,,0.00,WeatherDisplay:10.37,2013-07-23 22:50:00,
2013-07-23 18:55:00,90.1,89.5,31.62,West,270,1.1,1.1,98,0.00,CLR,,0.00,WeatherDisplay:10.37,2013-07-23 22:55:00,
2013-07-23 19:00:00,89.8,89.2,31.69,West,270,4.6,4.6,98,0.00,CLR,,0.00,WeatherDisplay:10.37,2013-07-23 23:00:00,
2013-07-23 19:05:00,89.6,89.0,31.69,West,270,2.3,2.3,98,0.00,CLR,,0.00,WeatherDisplay:10.37,2013-07-23 23:05:00,
2013-07-23 19:11:00,89.6,89.0,31.80,West,270,1.1,1.1,98,0.00,CLR,,0.00,WeatherDisplay:10.37,2013-07-23 23:11:00,
2013-07-23 19:16:00,89.1,88.5,31.80,West,270,5.8,5.8,98,0.00,CLR,,0.00,WeatherDisplay:10.37,2013-07-23 23:16:00,
2013-07-23 19:22:00,88.7,88.1,31.78,West,270,5.8,5.8,98,0.00,CLR,,0.00,WeatherDisplay:10.37,2013-07-23 23:22:00,
2013-07-23 19:27:00,88.2,87.6,31.78,West,270,5.8,5.8,98,0.00,CLR,,0.00,WeatherDisplay:10.37,2013-07-23 23:27:00,
2013-07-23 19:32:00,87.8,87.2,31.78,WSW,248,1.7,1.7,98,0.00,CLR,,0.00,WeatherDisplay:10.37,2013-07-23 23:32:00,
2013-07-23 19:37:00,87.6,87.0,31.59,West,270,3.5,3.5,98,0.00,CLR,,0.00,WeatherDisplay:10.37,2013-07-23 23:37:00,
2013-07-23 19:43:00,87.6,87.0,31.59,West,270,1.1,0.0,98,0.00,CLR,,0.00,WeatherDisplay:10.37,2013-07-23 23:43:00,
2013-07-23 19:48:00,87.4,86.8,31.38,West,270,2.3,2.3,98,0.00,CLR,,0.00,WeatherDisplay:10.37,2013-07-23 23:48:00,
2013-07-23 19:53:00,87.1,86.5,31.38,West,270,1.1,1.1,98,0.00,CLR,,0.00,WeatherDisplay:10.37,2013-07-23 23:53:00,
2013-07-23 19:58:00,86.7,86.1,31.50,West,270,1.1,1.1,98,0.00,CLR,,0.00,WeatherDisplay:10.37,2013-07-23 23:58:00,
2013-07-23 20:03:00,86.2,85.6,31.50,West,270,1.1,1.1,98,0.00,CLR,,0.00,WeatherDisplay:10.37,2013-07-24 00:03:00,
2013-07-23 20:08:00,86.2,85.6,31.50,West,270,1.1,1.1,98,0.00,CLR,,0.00,WeatherDisplay:10.37,2013-07-24 00:08:00,
2013-07-23 20:13:00,86.2,85.6,31.45,West,270,1.1,1.1,98,0.00,CLR,,0.00,WeatherDisplay:10.37,2013-07-24 00:13:00,
2013-07-23 20:19:00,86.0,85.4,31.45,West,270,1.1,0.0,98,0.00,CLR,,0.00,WeatherDisplay:10.37,2013-07-24 00:19:00,
2013-07-23 20:24:00,85.8,85.2,31.50,West,270,4.2,4.2,98,0.00,CLR,,0.00,WeatherDisplay:10.37,2013-07-24 00:24:00,
2013-07-23 20:30:00,85.6,85.0,31.50,West,270,0.0,0.0,98,0.00,CLR,,0.00,WeatherDisplay:10.37,2013-07-24 00:30:00,
2013-07-23 20:35:00,85.5,84.9,31.26,West,270,0.0,0.0,98,0.00,CLR,,0.00,WeatherDisplay:10.37,2013-07-24 00:35:00,
2013-07-23 20:41:00,85.3,84.7,31.26,West,270,2.3,2.3,98,0.00,CLR,,0.00,WeatherDisplay:10.37,2013-07-24 00:41:00,
2013-07-23 20:46:00,85.3,84.7,30.89,West,270,1.1,1.1,98,0.00,CLR,,0.00,WeatherDisplay:10.37,2013-07-24 00:46:00,
2013-07-23 20:51:00,85.1,84.5,30.89,West,270,0.0,0.0,98,0.00,CLR,,0.00,WeatherDisplay:10.37,2013-07-24 00:51:00,
2013-07-23 20:56:00,84.9,84.3,30.89,West,270,1.1,1.1,98,0.00,CLR,,0.00,WeatherDisplay:10.37,2013-07-24 00:56:00,
2013-07-23 21:01:00,84.9,84.3,30.37,West,270,1.1,1.1,98,0.00,CLR,,0.00,WeatherDisplay:10.37,2013-07-24 01:01:00,
2013-07-23 21:06:00,84.9,84.3,30.37,West,270,0.0,0.0,98,0.00,CLR,,0.00,WeatherDisplay:10.37,2013-07-24 01:06:00,
2013-07-23 21:11:00,84.6,84.0,30.38,West,270,1.1,1.1,98,0.00,CLR,,0.00,WeatherDisplay:10.37,2013-07-24 01:11:00,
2013-07-23 21:16:00,84.6,84.0,30.38,West,270,1.7,1.7,98,0.00,CLR,,0.00,WeatherDisplay:10.37,2013-07-24 01:16:00,
2013-07-23 21:21:00,84.4,83.8,30.49,West,270,0.0,0.5,98,0.00,CLR,,0.00,WeatherDisplay:10.37,2013-07-24 01:21:00,
2013-07-23 21:27:00,84.4,83.8,30.49,West,270,1.1,1.1,98,0.00,CLR,,0.00,WeatherDisplay:10.37,2013-07-24 01:27:00,
2013-07-23 21:32:00,84.4,83.8,30.49,West,270,0.0,0.0,98,0.00,CLR,,0.00,WeatherDisplay:10.37,2013-07-24 01:32:00,
2013-07-23 21:37:00,84.4,83.8,30.63,West,270,0.0,0.0,98,0.00,CLR,,0.00,WeatherDisplay:10.37,2013-07-24 01:37:00,
2013-07-23 21:42:00,84.4,83.8,30.63,West,270,0.0,0.0,98,0.00,CLR,,0.00,WeatherDisplay:10.37,2013-07-24 01:42:00,
2013-07-23 21:47:00,84.2,83.6,30.71,West,270,1.1,1.1,98,0.00,CLR,,0.00,WeatherDisplay:10.37,2013-07-24 01:47:00,
2013-07-23 21:52:00,84.2,83.6,30.71,West,270,0.0,0.0,98,0.00,CLR,,0.00,WeatherDisplay:10.37,2013-07-24 01:52:00,
2013-07-23 21:57:00,84.2,83.6,31.04,West,270,0.0,0.0,98,0.00,CLR,,0.00,WeatherDisplay:10.37,2013-07-24 01:57:00,
2013-07-23 22:03:00,84.2,83.6,31.04,West,270,1.1,0.0,98,0.00,CLR,,0.00,WeatherDisplay:10.37,2013-07-24 02:03:00,
2013-07-23 22:08:00,84.2,83.6,31.04,West,270,0.0,0.0,98,0.00,CLR,,0.00,WeatherDisplay:10.37,2013-07-24 02:08:00,
2013-07-23 22:13:00,84.2,83.6,31.38,West,270,1.1,1.1,98,0.00,CLR,,0.00,WeatherDisplay:10.37,2013-07-24 02:13:00,
2013-07-23 22:18:00,84.0,83.4,31.38,West,270,0.0,0.0,98,0.00,CLR,,0.00,WeatherDisplay:10.37,2013-07-24 02:18:00,
2013-07-23 22:23:00,84.0,83.4,31.54,West,270,0.0,0.0,98,0.00,CLR,,0.00,WeatherDisplay:10.37,2013-07-24 02:23:00,
2013-07-23 22:28:00,84.0,83.4,31.54,West,270,0.0,0.0,98,0.00,CLR,,0.00,WeatherDisplay:10.37,2013-07-24 02:28:00,
2013-07-23 22:33:00,84.0,83.4,31.75,West,270,0.0,0.0,98,0.00,CLR,,0.00,WeatherDisplay:10.37,2013-07-24 02:33:00,
2013-07-23 22:39:00,84.0,83.4,31.75,West,270,0.0,0.0,98,0.00,CLR,,0.00,WeatherDisplay:10.37,2013-07-24 02:39:00,
2013-07-23 22:44:00,83.7,83.1,31.75,West,270,0.0,0.0,98,0.00,CLR,,0.00,WeatherDisplay:10.37,2013-07-24 02:44:00,
2013-07-23 22:50:00,83.7,83.1,31.98,West,270,0.0,0.0,98,0.00,CLR,,0.00,WeatherDisplay:10.37,2013-07-24 02:50:00,
2013-07-23 22:55:00,83.7,83.1,31.98,West,270,0.0,0.0,98,0.00,CLR,,0.00,WeatherDisplay:10.37,2013-07-24 02:55:00,
2013-07-23 23:01:00,83.5,82.9,32.20,West,270,0.0,0.0,98,0.00,CLR,,0.00,WeatherDisplay:10.37,2013-07-24 03:01:00,
2013-07-23 23:06:00,83.5,82.9,32.20,West,270,0.0,0.0,98,0.00,CLR,,0.00,WeatherDisplay:10.37,2013-07-24 03:06:00,
2013-07-23 23:11:00,83.3,82.7,32.30,West,270,0.0,0.0,98,0.00,CLR,,0.00,WeatherDisplay:10.37,2013-07-24 03:11:00,
2013-07-23 23:16:00,83.3,82.7,32.30,West,270,0.0,0.0,98,0.00,CLR,,0.00,WeatherDisplay:10.37,2013-07-24 03:16:00,
2013-07-23 23:21:00,83.3,82.7,32.46,West,270,0.0,0.0,98,0.00,CLR,,0.00,WeatherDisplay:10.37,2013-07-24 03:21:00,
2013-07-23 23:26:00,83.1,82.5,32.46,West,270,1.1,1.1,98,0.00,CLR,,0.00,WeatherDisplay:10.37,2013-07-24 03:26:00,
2013-07-23 23:31:00,83.1,82.5,32.46,West,270,0.0,0.0,98,0.00,CLR,,0.00,WeatherDisplay:10.37,2013-07-24 03:31:00,
2013-07-23 23:37:00,83.1,82.5,31.75,West,270,0.0,0.0,98,0.00,CLR,,0.00,WeatherDisplay:10.37,2013-07-24 03:37:00,
2013-07-23 23:42:00,83.1,82.5,31.75,West,270,0.0,0.0,98,0.00,CLR,,0.00,WeatherDisplay:10.37,2013-07-24 03:42:00,
2013-07-23 23:47:00,83.1,82.5,31.75,West,270,0.0,0.0,98,0.00,CLR,,0.00,WeatherDisplay:10.37,2013-07-24 03:47:00,
2013-07-23 23:53:00,83.1,82.5,31.75,West,270,0.0,0.0,98,0.00,CLR,,0.00,WeatherDisplay:10.37,2013-07-24 03:53:00,
2013-07-23 23:58:00,83.1,82.5,31.75,West,270,1.1,1.1,98,0.00,CLR,,0.00,WeatherDisplay:10.37,2013-07-24 03:58:00,